createdAt,value
2018-08-25T00:00:52.827Z,90.55
2018-08-25T00:03:21.784Z,91.33
2018-08-25T00:05:50.700Z,91.69
2018-08-25T00:08:19.676Z,91.13
2018-08-25T00:10:48.612Z,91.53
2018-08-25T00:13:17.544Z,91.98
2018-08-25T00:15:46.509Z,92.72
2018-08-25T00:18:15.448Z,92.36
2018-08-25T00:20:44.437Z,92.64
2018-08-25T00:23:13.404Z,93.10
2018-08-25T00:25:42.344Z,93.84
2018-08-25T00:28:11.293Z,93.55
2018-08-25T00:30:45.229Z,94.06
2018-08-25T00:33:14.276Z,93.33
2018-08-25T00:35:43.212Z,94.28
2018-08-25T00:38:12.228Z,94.29
2018-08-25T00:40:41.157Z,93.86
2018-08-25T00:43:10.117Z,94.54
2018-08-25T00:45:39.081Z,94.81
2018-08-25T00:48:08.221Z,94.66
2018-08-25T00:50:37.341Z,94.68
2018-08-25T00:53:06.296Z,94.73
2018-08-25T00:55:35.373Z,94.84
2018-08-25T00:58:04.427Z,95.26
2018-08-25T01:00:33.457Z,94.91
2018-08-25T01:03:02.449Z,95.08
2018-08-25T01:05:32.006Z,95.00
2018-08-25T01:08:01.071Z,94.95
2018-08-25T01:10:30.174Z,95.07
2018-08-25T01:12:59.210Z,95.23
2018-08-25T01:15:28.202Z,96.62
2018-08-25T01:17:57.257Z,97.22
2018-08-25T01:20:26.305Z,98.33
2018-08-25T01:22:55.312Z,98.97
2018-08-25T01:25:24.368Z,97.95
2018-08-25T01:27:53.429Z,97.61
2018-08-25T01:30:22.464Z,98.44
2018-08-25T01:32:51.496Z,98.15
2018-08-25T01:35:20.733Z,99.01
2018-08-25T01:37:49.703Z,98.25
2018-08-25T01:40:18.691Z,98.59
2018-08-25T01:42:47.728Z,98.84
2018-08-25T01:45:16.664Z,98.50
2018-08-25T01:47:45.701Z,98.27
2018-08-25T01:50:14.633Z,98.78
2018-08-25T01:52:43.568Z,98.71
2018-08-25T01:55:12.700Z,97.69
2018-08-25T01:57:41.632Z,97.89
2018-08-25T02:00:10.710Z,97.63
2018-08-25T02:02:39.742Z,98.60
2018-08-25T02:05:08.764Z,98.49
2018-08-25T02:07:37.752Z,98.40
2018-08-25T02:10:07.144Z,98.52
2018-08-25T02:12:36.104Z,98.83
2018-08-25T02:15:05.174Z,98.60
2018-08-25T02:17:34.232Z,98.64
2018-08-25T02:20:03.245Z,99.15
2018-08-25T02:22:32.255Z,99.12
2018-08-25T02:25:01.220Z,98.83
2018-08-25T02:27:30.253Z,99.72
2018-08-25T02:29:59.248Z,99.93
2018-08-25T02:32:28.238Z,99.70
2018-08-25T02:34:57.264Z,100.00
2018-08-25T02:37:26.249Z,100.00
2018-08-25T02:39:55.347Z,99.71
2018-08-25T02:42:24.299Z,99.51
2018-08-25T02:44:53.344Z,98.59
2018-08-25T02:47:22.369Z,98.47
2018-08-25T02:49:51.377Z,98.28
2018-08-25T02:52:20.412Z,98.12
2018-08-25T02:54:49.356Z,98.17
2018-08-25T02:57:18.376Z,97.63
2018-08-25T02:59:47.381Z,97.49
2018-08-25T03:02:16.327Z,97.72
2018-08-25T03:04:45.349Z,97.65
2018-08-25T03:07:14.283Z,98.91
2018-08-25T03:09:43.369Z,98.11
2018-08-25T03:12:12.340Z,98.25
2018-08-25T03:14:41.342Z,98.99
2018-08-25T03:17:41.366Z,99.55
2018-08-25T03:20:10.420Z,99.03
2018-08-25T03:22:39.500Z,99.64
2018-08-25T03:25:08.457Z,100.00
2018-08-25T03:27:37.501Z,100.00
2018-08-25T03:30:06.469Z,99.67
2018-08-25T03:32:35.407Z,99.49
2018-08-25T03:35:04.364Z,99.11
2018-08-25T03:37:33.416Z,98.31
2018-08-25T03:40:02.566Z,97.45
2018-08-25T03:42:31.520Z,98.06
2018-08-25T03:45:00.493Z,96.41
2018-08-25T03:47:29.557Z,96.93
2018-08-25T03:49:58.557Z,96.24
2018-08-25T03:52:27.597Z,95.45
2018-08-25T03:54:56.612Z,94.72
2018-08-25T03:57:25.630Z,94.86
2018-08-25T03:59:54.685Z,93.62
2018-08-25T04:02:23.792Z,92.43
2018-08-25T04:04:52.829Z,92.29
2018-08-25T04:07:21.783Z,92.41
2018-08-25T04:09:50.802Z,92.12
2018-08-25T04:12:19.816Z,91.78
2018-08-25T04:14:48.943Z,91.51
2018-08-25T04:17:17.868Z,89.76
2018-08-25T04:19:46.873Z,89.35
2018-08-25T04:22:15.915Z,89.66
2018-08-25T04:24:44.876Z,88.76
2018-08-25T04:27:14.002Z,88.99
2018-08-25T04:29:42.952Z,85.29
2018-08-25T04:32:12.007Z,81.52
2018-08-25T04:34:40.956Z,77.00
2018-08-25T04:37:09.892Z,72.46
2018-08-25T04:39:38.864Z,67.81
2018-08-25T04:42:07.957Z,65.17
2018-08-25T04:44:36.945Z,62.19
2018-08-25T04:47:06.119Z,59.41
2018-08-25T04:49:35.234Z,58.38
2018-08-25T04:52:04.328Z,55.45
2018-08-25T04:54:33.325Z,55.10
2018-08-25T04:57:02.411Z,52.78
2018-08-25T04:59:31.469Z,51.56
2018-08-25T05:02:00.599Z,50.17
2018-08-25T05:04:29.495Z,48.80
2018-08-25T05:06:58.602Z,47.97
2018-08-25T05:09:27.604Z,47.69
2018-08-25T05:11:56.665Z,45.61
2018-08-25T05:14:25.631Z,43.93
2018-08-25T05:16:54.576Z,42.41
2018-08-25T05:19:23.543Z,42.46
2018-08-25T05:21:52.604Z,40.96
2018-08-25T05:24:21.753Z,39.79
2018-08-25T05:26:50.812Z,39.02
2018-08-25T05:29:19.833Z,38.54
2018-08-25T05:31:48.910Z,38.23
2018-08-25T05:34:18.076Z,41.02
2018-08-25T05:36:47.102Z,41.62
2018-08-25T05:39:16.105Z,42.37
2018-08-25T05:41:45.234Z,42.69
2018-08-25T05:44:14.335Z,43.89
2018-08-25T05:46:43.333Z,45.51
2018-08-25T05:49:12.388Z,46.13
2018-08-25T05:51:41.344Z,46.71
2018-08-25T05:54:10.309Z,43.71
2018-08-25T05:56:39.244Z,41.32
2018-08-25T05:59:08.252Z,40.37
2018-08-25T06:01:37.198Z,39.53
2018-08-25T06:04:06.150Z,38.18
2018-08-25T06:06:35.226Z,37.31
2018-08-25T06:09:06.197Z,37.13
2018-08-25T06:11:35.157Z,40.39
2018-08-25T06:14:04.201Z,40.53
2018-08-25T06:16:33.329Z,42.98
2018-08-25T06:19:02.297Z,44.73
2018-08-25T06:21:31.249Z,46.60
2018-08-25T06:24:00.336Z,49.31
2018-08-25T06:26:29.424Z,47.55
2018-08-25T06:28:58.416Z,47.81
2018-08-25T06:31:27.365Z,44.62
2018-08-25T06:33:56.451Z,43.46
2018-08-25T06:36:25.437Z,40.69
2018-08-25T06:38:54.455Z,41.02
2018-08-25T06:41:23.518Z,44.68
2018-08-25T06:43:52.491Z,45.60
2018-08-25T06:46:21.508Z,47.37
2018-08-25T06:48:50.525Z,47.58
2018-08-25T06:51:19.665Z,49.00
2018-08-25T06:53:48.692Z,50.81
2018-08-25T06:56:17.695Z,51.49
2018-08-25T06:58:46.716Z,52.84
2018-08-25T07:01:15.688Z,55.65
2018-08-25T07:03:44.684Z,54.24
2018-08-25T07:06:13.694Z,53.48
2018-08-25T07:08:42.716Z,52.88
2018-08-25T07:11:11.709Z,50.77
2018-08-25T07:13:40.717Z,53.18
2018-08-25T07:16:09.724Z,52.02
2018-08-25T07:18:38.725Z,53.00
2018-08-25T07:21:07.736Z,49.52
2018-08-25T07:23:36.740Z,52.04
2018-08-25T07:26:05.839Z,54.11
2018-08-25T07:28:34.861Z,54.06
2018-08-25T07:31:03.850Z,52.13
2018-08-25T07:33:32.856Z,51.87
2018-08-25T07:36:01.870Z,52.77
2018-08-25T07:38:32.064Z,50.54
2018-08-25T07:41:01.012Z,48.87
2018-08-25T07:43:30.089Z,49.00
2018-08-25T07:45:59.039Z,47.63
2018-08-25T07:48:28.041Z,44.40
2018-08-25T07:50:57.348Z,46.87
2018-08-25T07:53:26.365Z,45.73
2018-08-25T07:55:55.397Z,46.97
2018-08-25T07:58:24.474Z,48.02
2018-08-25T08:00:53.614Z,45.95
2018-08-25T08:03:22.574Z,50.64
2018-08-25T08:05:51.581Z,46.24
2018-08-25T08:08:20.537Z,45.85
2018-08-25T08:10:49.464Z,43.98
2018-08-25T08:13:18.615Z,43.64
2018-08-25T08:15:47.633Z,43.53
2018-08-25T08:18:16.669Z,46.14
2018-08-25T08:20:45.694Z,44.79
2018-08-25T08:23:14.694Z,45.00
2018-08-25T08:25:43.717Z,43.77
2018-08-25T08:28:12.743Z,43.97
2018-08-25T08:30:41.860Z,45.64
2018-08-25T08:33:11.231Z,46.34
2018-08-25T08:35:40.177Z,45.96
2018-08-25T08:38:09.233Z,45.13
2018-08-25T08:40:38.228Z,44.07
2018-08-25T08:43:07.255Z,44.15
2018-08-25T08:45:36.293Z,43.49
2018-08-25T08:48:05.281Z,46.97
2018-08-25T08:50:34.331Z,43.99
2018-08-25T08:53:03.201Z,44.77
2018-08-25T08:55:32.197Z,42.40
2018-08-25T08:58:01.224Z,41.88
2018-08-25T09:00:30.187Z,42.22
2018-08-25T09:02:59.181Z,47.03
2018-08-25T09:05:28.201Z,40.82
2018-08-25T09:07:57.231Z,41.88
2018-08-25T09:10:26.213Z,41.42
2018-08-25T09:12:55.253Z,41.94
2018-08-25T09:15:24.339Z,40.16
2018-08-25T09:17:53.360Z,41.15
2018-08-25T09:20:22.353Z,41.46
2018-08-25T09:22:51.680Z,39.75
2018-08-25T09:25:20.730Z,40.90
2018-08-25T09:27:49.761Z,38.84
2018-08-25T09:30:18.806Z,39.34
2018-08-25T09:32:47.833Z,41.25
2018-08-25T09:35:16.788Z,40.80
2018-08-25T09:37:45.824Z,36.87
2018-08-25T09:40:14.849Z,37.23
2018-08-25T09:42:43.855Z,38.02
2018-08-25T09:45:12.877Z,38.22
2018-08-25T09:47:41.855Z,36.20
2018-08-25T09:50:10.932Z,36.20
2018-08-25T09:52:40.093Z,35.78
2018-08-25T09:55:09.069Z,36.08
2018-08-25T09:57:38.030Z,36.57
2018-08-25T10:00:07.092Z,35.82
2018-08-25T10:02:36.189Z,35.68
2018-08-25T10:05:05.290Z,33.08
2018-08-25T10:07:34.322Z,33.81
2018-08-25T10:10:04.167Z,33.39
2018-08-25T10:12:33.199Z,32.90
2018-08-25T10:15:02.164Z,34.69
2018-08-25T10:17:31.159Z,32.35
2018-08-25T10:20:00.210Z,31.55
2018-08-25T10:22:29.289Z,32.21
2018-08-25T10:24:58.347Z,33.07
2018-08-25T10:27:27.403Z,31.85
2018-08-25T10:29:56.532Z,31.70
2018-08-25T10:32:25.485Z,29.43
2018-08-25T10:34:54.481Z,30.17
2018-08-25T10:37:23.462Z,29.20
2018-08-25T10:39:52.417Z,29.17
2018-08-25T10:42:21.409Z,31.02
2018-08-25T10:44:50.381Z,28.46
2018-08-25T10:47:19.488Z,28.94
2018-08-25T10:49:48.441Z,26.96
2018-08-25T10:52:17.565Z,28.31
2018-08-25T10:54:46.602Z,26.82
2018-08-25T10:57:15.596Z,27.44
2018-08-25T10:59:44.663Z,27.41
2018-08-25T11:02:29.102Z,25.28
2018-08-25T11:04:58.151Z,25.00
2018-08-25T11:07:27.112Z,25.09
2018-08-25T11:09:56.136Z,24.06
2018-08-25T11:12:25.155Z,22.60
2018-08-25T11:14:54.180Z,22.57
2018-08-25T11:17:23.193Z,23.92
2018-08-25T11:19:52.185Z,22.34
2018-08-25T11:22:21.339Z,23.17
2018-08-25T11:24:50.459Z,22.38
2018-08-25T11:27:19.571Z,22.50
2018-08-25T11:29:48.619Z,20.87
2018-08-25T11:32:17.663Z,21.52
2018-08-25T11:34:46.666Z,21.22
2018-08-25T11:37:15.906Z,20.95
2018-08-25T11:39:45.008Z,19.10
2018-08-25T11:42:14.178Z,18.83
2018-08-25T11:44:43.211Z,18.85
2018-08-25T11:47:14.238Z,20.56
2018-08-25T11:49:43.759Z,18.65
2018-08-25T11:52:13.080Z,19.74
2018-08-25T11:54:42.152Z,18.76
2018-08-25T11:57:11.381Z,20.17
2018-08-25T11:59:40.465Z,19.12
2018-08-25T12:02:09.633Z,18.98
2018-08-25T12:04:38.748Z,19.13
2018-08-25T12:07:07.990Z,19.16
2018-08-25T12:09:37.117Z,18.84
2018-08-25T12:12:06.235Z,19.16
2018-08-25T12:14:35.514Z,19.73
2018-08-25T12:17:04.680Z,18.90
2018-08-25T12:19:33.707Z,18.26
2018-08-25T12:22:02.855Z,17.80
2018-08-25T12:24:31.843Z,18.34
2018-08-25T12:27:02.776Z,20.01
2018-08-25T12:29:32.300Z,17.99
2018-08-25T12:32:01.886Z,17.84
2018-08-25T12:34:31.159Z,17.67
2018-08-25T12:37:00.390Z,17.36
2018-08-25T12:39:29.763Z,17.62
2018-08-25T12:41:59.081Z,17.68
2018-08-25T12:44:28.381Z,16.63
2018-08-25T12:46:57.744Z,15.43
2018-08-25T12:49:27.123Z,17.38
2018-08-25T12:51:56.369Z,17.37
2018-08-25T12:54:25.658Z,18.45
2018-08-25T12:56:54.983Z,16.91
2018-08-25T12:59:24.264Z,16.88
2018-08-25T13:01:53.609Z,17.84
2018-08-25T13:04:22.926Z,17.62
2018-08-25T13:06:52.214Z,18.79
2018-08-25T13:09:21.407Z,19.57
2018-08-25T13:11:50.715Z,21.77
2018-08-25T13:14:20.106Z,22.98
2018-08-25T13:16:49.440Z,25.50
2018-08-25T13:19:18.823Z,24.17
2018-08-25T13:21:48.130Z,25.45
2018-08-25T13:24:17.540Z,25.70
2018-08-25T13:26:46.891Z,26.77
2018-08-25T13:29:16.233Z,28.11
2018-08-25T13:31:45.524Z,30.90
2018-08-25T13:34:14.877Z,28.81
2018-08-25T13:36:44.153Z,30.26
2018-08-25T13:39:13.724Z,29.34
2018-08-25T13:41:43.392Z,31.19
2018-08-25T13:44:13.857Z,30.33
2018-08-25T13:46:43.733Z,30.47
2018-08-25T13:49:13.224Z,30.54
2018-08-25T13:51:42.533Z,30.76
2018-08-25T13:54:11.994Z,32.08
2018-08-25T13:56:41.292Z,32.99
2018-08-25T13:59:10.567Z,33.80
2018-08-25T14:01:39.906Z,31.92
2018-08-25T14:04:09.247Z,34.17
2018-08-25T14:06:38.490Z,31.74
2018-08-25T14:09:09.018Z,31.86
2018-08-25T14:11:38.287Z,33.29
2018-08-25T14:14:07.608Z,33.40
2018-08-25T14:16:36.934Z,33.14
2018-08-25T14:19:06.258Z,32.68
2018-08-25T14:21:35.660Z,32.94
2018-08-25T14:24:05.006Z,33.83
2018-08-25T14:26:34.383Z,34.36
2018-08-25T14:29:03.721Z,34.23
2018-08-25T14:31:33.031Z,33.91
2018-08-25T14:34:02.358Z,33.80
2018-08-25T14:36:31.807Z,32.98
2018-08-25T14:39:01.255Z,32.85
2018-08-25T14:41:30.619Z,50.90
2018-08-25T14:43:59.937Z,48.91
2018-08-25T14:46:29.210Z,50.61
2018-08-25T14:49:00.391Z,51.69
2018-08-25T14:51:29.742Z,49.54
2018-08-25T14:53:59.134Z,54.11
2018-08-25T14:56:28.913Z,51.44
2018-08-25T14:58:58.548Z,55.73
2018-08-25T15:01:27.902Z,58.62
2018-08-25T15:03:57.628Z,52.32
2018-08-25T15:06:27.243Z,61.51
2018-08-25T15:08:56.550Z,60.52
2018-08-25T15:11:25.881Z,65.67
2018-08-25T15:13:55.210Z,66.47
2018-08-25T15:16:24.637Z,66.84
2018-08-25T15:18:53.968Z,62.69
2018-08-25T15:21:23.219Z,66.16
2018-08-25T15:23:52.332Z,67.72
2018-08-25T15:26:21.716Z,69.91
2018-08-25T15:28:50.944Z,60.89
2018-08-25T15:31:20.407Z,67.05
2018-08-25T15:33:49.686Z,67.32
2018-08-25T15:36:18.879Z,66.37
2018-08-25T15:38:48.099Z,67.39
2018-08-25T15:41:17.215Z,68.67
2018-08-25T15:43:46.559Z,62.69
2018-08-25T15:46:15.717Z,67.96
2018-08-25T15:48:44.904Z,62.91
2018-08-25T15:51:14.025Z,68.14
2018-08-25T15:53:43.225Z,65.99
2018-08-25T15:56:12.435Z,68.15
2018-08-25T15:58:41.641Z,64.04
2018-08-25T16:01:10.973Z,66.35
2018-08-25T16:03:40.324Z,65.00
2018-08-25T16:06:09.800Z,69.67
2018-08-25T16:08:39.213Z,67.61
2018-08-25T16:11:08.564Z,70.93
2018-08-25T16:13:37.869Z,67.16
2018-08-25T16:16:07.133Z,69.64
2018-08-25T16:18:36.747Z,63.40
2018-08-25T16:21:06.459Z,69.70
2018-08-25T16:23:35.787Z,66.71
2018-08-25T16:26:05.061Z,69.90
2018-08-25T16:28:34.409Z,72.72
2018-08-25T16:31:03.755Z,76.17
2018-08-25T16:33:33.069Z,79.39
2018-08-25T16:36:02.407Z,80.13
2018-08-25T16:38:31.700Z,83.13
2018-08-25T16:41:01.041Z,83.53
2018-08-25T16:43:30.488Z,84.04
2018-08-25T16:45:59.843Z,85.36
2018-08-25T16:48:29.215Z,86.71
2018-08-25T16:50:58.596Z,86.45
2018-08-25T16:53:27.974Z,85.74
2018-08-25T16:55:57.452Z,87.26
2018-08-25T16:58:26.821Z,87.71
2018-08-25T17:00:56.210Z,87.40
2018-08-25T17:03:25.951Z,84.25
2018-08-25T17:05:55.946Z,86.46
2018-08-25T17:08:25.237Z,85.57
2018-08-25T17:10:54.686Z,82.35
2018-08-25T17:13:23.997Z,83.07
2018-08-25T17:15:53.356Z,83.82
2018-08-25T17:18:22.689Z,79.59
2018-08-25T17:20:52.067Z,81.00
2018-08-25T17:23:21.433Z,76.25
2018-08-25T17:25:50.788Z,82.31
2018-08-25T17:28:20.173Z,85.57
2018-08-25T17:30:49.521Z,84.34
2018-08-25T17:33:18.859Z,84.41
2018-08-25T17:35:48.245Z,80.67
2018-08-25T17:38:17.543Z,82.61
2018-08-25T17:40:46.858Z,84.15
2018-08-25T17:43:16.213Z,84.52
2018-08-25T17:45:45.724Z,83.37
2018-08-25T17:48:15.051Z,85.58
2018-08-25T17:50:44.429Z,86.10
2018-08-25T17:53:13.885Z,86.65
2018-08-25T17:55:43.235Z,84.63
2018-08-25T17:58:12.522Z,87.23
2018-08-25T18:00:41.811Z,83.79
2018-08-25T18:03:11.131Z,85.92
2018-08-25T18:05:40.467Z,84.59
2018-08-25T18:08:09.750Z,81.16
2018-08-25T18:10:39.046Z,84.71
2018-08-25T18:13:08.334Z,86.39
2018-08-25T18:15:37.765Z,87.10
2018-08-25T18:18:07.952Z,83.33
2018-08-25T18:20:37.315Z,84.08
2018-08-25T18:23:06.649Z,85.34
2018-08-25T18:25:35.995Z,87.39
2018-08-25T18:28:05.393Z,87.45
2018-08-25T18:30:34.701Z,86.77
2018-08-25T18:33:04.030Z,84.51
2018-08-25T18:35:33.351Z,84.84
2018-08-25T18:38:02.730Z,87.43
2018-08-25T18:40:32.119Z,88.71
2018-08-25T18:43:01.379Z,86.37
2018-08-25T18:45:30.736Z,88.46
2018-08-25T18:47:59.993Z,89.62
2018-08-25T18:50:29.369Z,87.74
2018-08-25T18:52:58.632Z,89.39
2018-08-25T18:55:28.081Z,87.45
2018-08-25T18:57:57.420Z,89.77
2018-08-25T19:00:26.712Z,89.09
2018-08-25T19:02:56.026Z,89.77
2018-08-25T19:05:25.329Z,88.17
2018-08-25T19:07:54.666Z,90.46
2018-08-25T19:10:23.931Z,90.17
2018-08-25T19:12:53.270Z,86.91
2018-08-25T19:15:22.881Z,90.76
2018-08-25T19:17:52.561Z,89.01
2018-08-25T19:20:21.802Z,91.61
2018-08-25T19:22:51.104Z,91.14
2018-08-25T19:25:20.442Z,86.38
2018-08-25T19:27:49.701Z,90.18
2018-08-25T19:30:19.146Z,88.11
2018-08-25T19:32:48.601Z,91.15
2018-08-25T19:35:17.918Z,89.10
2018-08-25T19:37:47.257Z,91.55
2018-08-25T19:40:16.573Z,90.41
2018-08-25T19:42:45.903Z,90.53
2018-08-25T19:45:15.304Z,93.13
2018-08-25T19:47:44.781Z,93.96
2018-08-25T19:50:14.026Z,94.91
2018-08-25T19:52:43.406Z,91.78
2018-08-25T19:55:12.777Z,93.07
2018-08-25T19:57:42.071Z,92.57
2018-08-25T20:00:11.460Z,93.69
2018-08-25T20:02:40.797Z,92.57
2018-08-25T20:05:10.274Z,95.11
2018-08-25T20:07:39.630Z,91.78
2018-08-25T20:10:08.930Z,93.42
2018-08-25T20:12:38.263Z,87.22
2018-08-25T20:15:07.666Z,88.31
2018-08-25T20:17:37.010Z,86.74
2018-08-25T20:20:06.280Z,90.74
2018-08-25T20:22:35.628Z,93.11
2018-08-25T20:25:05.038Z,89.72
2018-08-25T20:27:34.359Z,92.95
2018-08-25T20:30:03.644Z,91.76
2018-08-25T20:32:32.921Z,90.62
2018-08-25T20:35:02.183Z,90.33
2018-08-25T20:37:31.249Z,93.68
2018-08-25T20:40:00.341Z,90.53
2018-08-25T20:42:29.346Z,87.56
2018-08-25T20:44:58.462Z,89.95
2018-08-25T20:47:27.514Z,90.96
2018-08-25T20:49:56.585Z,93.23
2018-08-25T20:52:25.737Z,90.68
2018-08-25T20:54:54.830Z,92.44
2018-08-25T20:57:23.870Z,94.07
2018-08-25T20:59:52.849Z,93.18
2018-08-25T21:02:21.812Z,94.54
2018-08-25T21:04:50.764Z,94.24
2018-08-25T21:07:19.728Z,93.86
2018-08-25T21:09:48.754Z,92.91
2018-08-25T21:12:17.691Z,93.89
2018-08-25T21:14:46.649Z,95.07
2018-08-25T21:17:15.645Z,95.97
2018-08-25T21:19:44.706Z,92.72
2018-08-25T21:22:13.762Z,94.52
2018-08-25T21:24:42.821Z,92.83
2018-08-25T21:27:11.912Z,94.42
2018-08-25T21:29:40.856Z,94.69
2018-08-25T21:32:09.804Z,95.98
2018-08-25T21:34:38.746Z,95.75
2018-08-25T21:37:07.951Z,94.71
2018-08-25T21:39:36.953Z,96.27
2018-08-25T21:42:05.943Z,97.75
2018-08-25T21:44:35.026Z,98.35
2018-08-25T21:47:04.083Z,94.93
2018-08-25T21:49:33.024Z,94.59
2018-08-25T21:52:02.026Z,97.18
2018-08-25T21:54:31.028Z,97.71
2018-08-25T21:56:59.997Z,93.54
2018-08-25T21:59:28.936Z,95.58
2018-08-25T22:01:58.490Z,95.18
2018-08-25T22:04:28.632Z,97.64
2018-08-25T22:06:57.963Z,95.36
2018-08-25T22:09:26.963Z,98.10
2018-08-25T22:11:56.060Z,96.93
2018-08-25T22:14:25.053Z,96.92
2018-08-25T22:16:53.964Z,96.99
2018-08-25T22:19:22.954Z,96.04
2018-08-25T22:21:51.997Z,96.95
2018-08-25T22:24:20.932Z,94.36
2018-08-25T22:26:49.913Z,93.36
2018-08-25T22:29:18.900Z,94.85
2018-08-25T22:31:47.878Z,96.15
2018-08-25T22:34:16.792Z,95.97
2018-08-25T22:36:45.768Z,94.95
2018-08-25T22:39:14.736Z,93.85
2018-08-25T22:41:43.780Z,94.45
2018-08-25T22:44:12.824Z,94.82
2018-08-25T22:46:41.736Z,96.52
2018-08-25T22:49:10.710Z,96.02
2018-08-25T22:51:39.686Z,95.09
2018-08-25T22:54:08.740Z,93.55
2018-08-25T22:56:37.777Z,97.10
2018-08-25T22:59:06.716Z,95.11
2018-08-25T23:01:35.789Z,97.91
2018-08-25T23:04:04.848Z,98.01
2018-08-25T23:06:33.784Z,95.94
2018-08-25T23:09:02.917Z,98.50
2018-08-25T23:11:31.972Z,96.20
2018-08-25T23:14:00.940Z,96.27
2018-08-25T23:16:29.942Z,96.76
2018-08-25T23:18:58.892Z,97.19
2018-08-25T23:21:27.872Z,95.10
2018-08-25T23:23:56.830Z,95.60
2018-08-25T23:26:25.816Z,97.73
2018-08-25T23:28:54.827Z,98.68
2018-08-25T23:31:23.822Z,99.64
2018-08-25T23:33:53.694Z,97.71
2018-08-25T23:36:22.652Z,98.60
2018-08-25T23:38:51.645Z,99.42
2018-08-25T23:41:20.601Z,98.46
2018-08-25T23:43:49.661Z,99.20
2018-08-25T23:46:18.684Z,97.41
2018-08-25T23:48:47.625Z,98.36
2018-08-25T23:51:16.677Z,98.95
2018-08-25T23:53:45.696Z,98.83
2018-08-25T23:56:14.701Z,98.13
2018-08-25T23:58:43.664Z,97.64
